• Join FlightAware (Why Join?)
  • Login
  • US Flag 
05:06AM EDT


 

Airport Tracker/Info


-or-


 

Live Flight TrackerFlight Track Log ✈ AFL150 ✈ 03-Dec-2013 ✈ UUEE / SVO - MUHA / HAV

Flight Track Log - Related Links

Times and Time Zones

All times are in EST time to prevent confusion due to time zone crossing. See the AFL150 flight status page for this flight to view local times or setup timezone preferences in your user account.

Time Position Orientation Groundspeed Altitude Reporting Facility
EST Latitude Longitude Course Direction KTS MPH feet Rate Location/Type
04:40AM 56.0951 37.2276 318° Northwest  Level FlightAware Approximate
04:41AM 56.1791 37.0905 318° Northwest  Level FlightAware Approximate
04:42AM 56.2631 36.9528 318° Northwest  Level FlightAware Approximate
04:43AM 56.3468 36.8146 318° Northwest  Level FlightAware Approximate
04:44AM 56.4304 36.6757 317° Northwest  Level FlightAware Approximate
04:45AM 56.5139 36.5362 317° Northwest  Level FlightAware Approximate
04:46AM 56.5972 36.3960 317° Northwest  Level FlightAware Approximate
04:47AM 56.6803 36.2553 317° Northwest  Level FlightAware Approximate
04:48AM 56.7633 36.1140 317° Northwest  Level FlightAware Approximate
04:49AM 56.8461 35.9720 317° Northwest  Level FlightAware Approximate
04:50AM 56.9288 35.8294 317° Northwest  Level FlightAware Approximate
04:51AM 57.0112 35.6861 317° Northwest  Level FlightAware Approximate
04:52AM 57.0936 35.5423 317° Northwest  Level FlightAware Approximate
04:53AM 57.1757 35.3977 316° Northwest  Level FlightAware Approximate
04:54AM 57.2608 35.2472 316° Northwest  Level FlightAware Approximate
04:55AM 57.3456 35.0960 316° Northwest  Level FlightAware Approximate
04:56AM 57.4303 34.9440 316° Northwest  Level FlightAware Approximate
04:57AM 57.5147 34.7914 316° Northwest  Level FlightAware Approximate
04:58AM 57.5815 34.6105 314° West  Level Estimated
04:59AM 57.6628 34.4515 314° West  Level FlightAware Approximate
05:00AM 57.7440 34.2917 314° West  Level FlightAware Approximate
05:01AM 57.8249 34.1313 313° West  Level FlightAware Approximate
05:02AM 57.9057 33.9701 313° West  Level FlightAware Approximate
05:03AM 57.9862 33.8082 313° West  Level FlightAware Approximate
05:04AM 58.0666 33.6455 313° West  Level FlightAware Approximate
05:05AM 58.1467 33.4821 313° West  Level FlightAware Approximate
05:06AM 58.2266 33.3180 313° West  Level FlightAware Approximate
05:07AM 58.3063 33.1531 313° West  Level FlightAware Approximate
05:08AM 58.3858 32.9875 313° West  Level FlightAware Approximate
05:09AM 58.4651 32.8212 312° West  Level FlightAware Approximate
05:10AM 58.5441 32.6541 312° West  Level FlightAware Approximate
05:11AM 58.6230 32.4863 312° West  Level FlightAware Approximate
05:12AM 58.7016 32.3176 312° West  Level FlightAware Approximate
05:13AM 58.7800 32.1483 312° West  Level FlightAware Approximate
05:14AM 58.8582 31.9781 312° West  Level FlightAware Approximate
05:15AM 58.9361 31.8072 312° West  Level FlightAware Approximate
05:16AM 59.0139 31.6355 311° West  Level FlightAware Approximate
05:17AM 59.0914 31.4631 311° West  Level FlightAware Approximate
05:18AM 59.1686 31.2898 311° West  Level FlightAware Approximate
05:19AM 59.2457 31.1158 311° West  Level FlightAware Approximate
05:20AM 59.3225 30.9410 311° West  Level FlightAware Approximate
05:21AM 59.3991 30.7654 311° West  Level FlightAware Approximate
05:22AM 59.4754 30.5890 310° West  Level FlightAware Approximate
05:23AM 59.5515 30.4118 310° West  Level FlightAware Approximate
05:24AM 59.6273 30.2338 310° West  Level FlightAware Approximate
05:25AM 59.7030 30.0550 310° West  Level FlightAware Approximate
05:26AM 59.7783 29.8754 310° West  Level FlightAware Approximate
05:27AM 59.8535 29.6950 310° West  Level FlightAware Approximate
05:28AM 59.9283 29.5138 310° West  Level FlightAware Approximate
05:29AM 60.0030 29.3317 309° West  Level FlightAware Approximate
05:30AM 60.0773 29.1489 309° West  Level FlightAware Approximate
05:31AM 60.1515 28.9652 309° West  Level FlightAware Approximate
05:32AM 60.2253 28.7806 309° West  Level FlightAware Approximate
05:33AM 60.2989 28.5953 309° West  Level FlightAware Approximate
05:34AM 60.3723 28.4091 309° West  Level FlightAware Approximate
05:35AM 60.4454 28.2221 308° West  Level FlightAware Approximate
05:36AM 60.5182 28.0342 308° West  Level FlightAware Approximate
05:37AM 60.5908 27.8455 308° West  Level FlightAware Approximate
05:38AM 60.6630 27.6559 308° West  Level FlightAware Approximate
05:39AM 60.7351 27.4655 308° West  Level FlightAware Approximate
05:40AM 60.8068 27.2742 308° West  Level FlightAware Approximate
05:41AM 60.8783 27.0821 307° West  Level FlightAware Approximate
05:42AM 60.9495 26.8891 307° West  Level FlightAware Approximate
05:43AM 61.0204 26.6952 307° West  Level FlightAware Approximate
05:44AM 61.0911 26.5005 307° West  Level FlightAware Approximate
05:45AM 61.1614 26.3049 307° West  Level FlightAware Approximate
05:46AM 61.2315 26.1085 307° West  Level FlightAware Approximate
05:47AM 61.3013 25.9111 306° West  Level FlightAware Approximate
05:48AM 61.3708 25.7129 306° West  Level FlightAware Approximate
05:49AM 61.4400 25.5138 306° West  Level FlightAware Approximate
05:50AM 61.5090 25.3138 306° West  Level FlightAware Approximate
05:51AM 61.5776 25.1130 306° West  Level FlightAware Approximate
05:52AM 61.6460 24.9112 306° West  Level FlightAware Approximate
05:53AM 61.7140 24.7086 305° West  Level FlightAware Approximate
05:54AM 61.7817 24.5050 305° West  Level FlightAware Approximate
05:55AM 61.8492 24.3006 305° West  Level FlightAware Approximate
05:56AM 61.9163 24.0952 305° West  Level FlightAware Approximate
05:57AM 61.9831 23.8890 305° West  Level FlightAware Approximate
05:58AM 62.0496 23.6818 304° West  Level FlightAware Approximate
05:59AM 62.1158 23.4738 304° West  Level FlightAware Approximate
06:00AM 62.1817 23.2648 304° West  Level FlightAware Approximate
06:01AM 62.2473 23.0550 304° West  Level FlightAware Approximate
06:02AM 62.3126 22.8442 304° West  Level FlightAware Approximate
06:03AM 62.3775 22.6325 304° West  Level FlightAware Approximate
06:04AM 62.4421 22.4198 303° West  Level FlightAware Approximate
06:05AM 62.5064 22.2063 303° West  Level FlightAware Approximate
06:06AM 62.5704 21.9918 303° West  Level FlightAware Approximate
06:07AM 62.6340 21.7765 303° West  Level FlightAware Approximate
06:08AM 62.6973 21.5602 303° West  Level FlightAware Approximate
06:09AM 62.7603 21.3429 302° West  Level FlightAware Approximate
06:10AM 62.8229 21.1248 302° West  Level FlightAware Approximate
06:11AM 62.8852 20.9057 302° West  Level FlightAware Approximate
06:12AM 62.9472 20.6857 302° West  Level FlightAware Approximate
06:13AM 63.0088 20.4648 302° West  Level FlightAware Approximate
06:14AM 63.0700 20.2429 301° West  Level FlightAware Approximate
06:15AM 63.1309 20.0201 301° West  Level FlightAware Approximate
06:16AM 63.1915 19.7963 301° West  Level FlightAware Approximate
06:17AM 63.2517 19.5716 301° West  Level FlightAware Approximate
06:18AM 63.3116 19.3460 301° West  Level FlightAware Approximate
06:19AM 63.3710 19.1195 300° West  Level FlightAware Approximate
06:20AM 63.4302 18.8920 300° West  Level FlightAware Approximate
06:21AM 63.4889 18.6636 300° West  Level FlightAware Approximate
06:22AM 63.5473 18.4342 300° West  Level FlightAware Approximate
06:23AM 63.6054 18.2039 300° West  Level FlightAware Approximate
06:24AM 63.6631 17.9727 299° West  Level FlightAware Approximate
06:25AM 63.7203 17.7405 299° West  Level FlightAware Approximate
06:26AM 63.7773 17.5074 299° West  Level FlightAware Approximate
06:27AM 63.8338 17.2733 299° West  Level FlightAware Approximate
06:28AM 63.8900 17.0383 299° West  Level FlightAware Approximate
06:29AM 63.9457 16.8024 298° West  Level FlightAware Approximate
06:30AM 64.0011 16.5655 298° West  Level FlightAware Approximate
06:31AM 64.0561 16.3277 298° West  Level FlightAware Approximate
06:32AM 64.1108 16.0889 298° West  Level FlightAware Approximate
06:33AM 64.1650 15.8492 298° West  Level FlightAware Approximate
06:34AM 64.2188 15.6086 297° West  Level FlightAware Approximate
06:35AM 64.2722 15.3671 297° West  Level FlightAware Approximate
06:36AM 64.3253 15.1246 297° West  Level FlightAware Approximate
06:37AM 64.3779 14.8812 297° West  Level FlightAware Approximate
06:38AM 64.4301 14.6368 296° West  Level FlightAware Approximate
06:39AM 64.4819 14.3915 296° West  Level FlightAware Approximate
06:40AM 64.5334 14.1453 296° West  Level FlightAware Approximate
06:41AM 64.5844 13.8982 296° West  Level FlightAware Approximate
06:42AM 64.6349 13.6501 296° West  Level FlightAware Approximate
06:43AM 64.6851 13.4011 295° West  Level FlightAware Approximate
06:44AM 64.7348 13.1512 295° West  Level FlightAware Approximate
06:45AM 64.7842 12.9004 295° West  Level FlightAware Approximate
06:46AM 64.8331 12.6487 295° West  Level FlightAware Approximate
06:47AM 64.8815 12.3960 294° West  Level FlightAware Approximate
06:48AM 64.9296 12.1425 294° West  Level FlightAware Approximate
06:49AM 64.9772 11.8880 294° West  Level FlightAware Approximate
06:50AM 65.0244 11.6327 294° West  Level FlightAware Approximate
06:51AM 65.0711 11.3764 293° West  Level FlightAware Approximate
06:52AM 65.1174 11.1193 293° West  Level FlightAware Approximate
06:53AM 65.1633 10.8612 293° West  Level FlightAware Approximate
06:54AM 65.2087 10.6023 293° West  Level FlightAware Approximate
06:55AM 65.2536 10.3424 293° West  Level FlightAware Approximate
06:56AM 65.2981 10.0817 292° West  Level FlightAware Approximate
06:57AM 65.3422 9.8201 292° West  Level FlightAware Approximate
06:58AM 65.3858 9.5577 292° West  Level FlightAware Approximate
06:59AM 65.4289 9.2943 292° West  Level FlightAware Approximate
07:00AM 65.4716 9.0301 291° West  Level FlightAware Approximate
07:01AM 65.5139 8.7651 291° West  Level FlightAware Approximate
07:02AM 65.5556 8.4992 291° West  Level FlightAware Approximate
07:03AM 65.5969 8.2324 291° West  Level FlightAware Approximate
07:04AM 65.6378 7.9648 290° West  Level FlightAware Approximate
07:05AM 65.6781 7.6964 290° West  Level FlightAware Approximate
07:06AM 65.7180 7.4271 290° West  Level FlightAware Approximate
07:07AM 65.7574 7.1570 290° West  Level FlightAware Approximate
07:08AM 65.7964 6.8861 289° West  Level FlightAware Approximate
07:09AM 65.8348 6.6143 289° West  Level FlightAware Approximate
07:10AM 65.8728 6.3418 289° West  Level FlightAware Approximate
07:11AM 65.9103 6.0684 289° West  Level FlightAware Approximate
07:12AM 65.9473 5.7943 288° West  Level FlightAware Approximate
07:13AM 65.9838 5.5194 288° West  Level FlightAware Approximate
07:14AM 66.0198 5.2436 288° West  Level FlightAware Approximate
07:15AM 66.0553 4.9672 288° West  Level FlightAware Approximate
07:16AM 66.0903 4.6899 287° West  Level FlightAware Approximate
07:17AM 66.1249 4.4119 287° West  Level FlightAware Approximate
07:18AM 66.1589 4.1331 287° West  Level FlightAware Approximate
07:19AM 66.1924 3.8536 287° West  Level FlightAware Approximate
07:20AM 66.2254 3.5733 286° West  Level FlightAware Approximate
07:21AM 66.2579 3.2924 286° West  Level FlightAware Approximate
07:22AM 66.2899 3.0106 286° West  Level FlightAware Approximate
07:23AM 66.3214 2.7282 286° West  Level FlightAware Approximate
07:24AM 66.3524 2.4451 285° West  Level FlightAware Approximate
07:25AM 66.3829 2.1613 285° West  Level FlightAware Approximate
07:26AM 66.4128 1.8768 285° West  Level FlightAware Approximate
07:27AM 66.4422 1.5916 285° West  Level FlightAware Approximate
07:28AM 66.4711 1.3058 284° West  Level FlightAware Approximate
07:29AM 66.4995 1.0193 284° West  Level FlightAware Approximate
07:30AM 66.5274 0.7322 284° West  Level FlightAware Approximate
07:31AM 66.5547 0.4444 284° West  Level FlightAware Approximate
07:32AM 66.5815 0.1560 283° West  Level FlightAware Approximate
07:33AM 66.6078 -0.1331 283° West  Level FlightAware Approximate
07:34AM 66.6335 -0.4227 283° West  Level FlightAware Approximate
07:35AM 66.6587 -0.7129 282° West  Level FlightAware Approximate
07:36AM 66.6834 -1.0037 282° West  Level FlightAware Approximate
07:37AM 66.7075 -1.2951 282° West  Level FlightAware Approximate
07:38AM 66.7311 -1.5871 282° West  Level FlightAware Approximate
07:39AM 66.7542 -1.8796 281° West  Level FlightAware Approximate
07:40AM 66.7767 -2.1727 281° West  Level FlightAware Approximate
07:41AM 66.7986 -2.4662 281° West  Level FlightAware Approximate
07:42AM 66.8201 -2.7603 281° West  Level FlightAware Approximate
07:43AM 66.8409 -3.0549 280° West  Level FlightAware Approximate
07:44AM 66.8612 -3.3500 280° West  Level FlightAware Approximate
07:45AM 66.8810 -3.6456 280° West  Level FlightAware Approximate
07:46AM 66.9002 -3.9417 280° West  Level FlightAware Approximate
07:47AM 66.9189 -4.2382 279° West  Level FlightAware Approximate
07:48AM 66.9370 -4.5352 279° West  Level FlightAware Approximate
07:49AM 66.9546 -4.8326 279° West  Level FlightAware Approximate
07:50AM 66.9716 -5.1304 278° West  Level FlightAware Approximate
07:51AM 66.9880 -5.4286 278° West  Level FlightAware Approximate
07:52AM 67.0039 -5.7273 278° West  Level FlightAware Approximate
07:53AM 67.0192 -6.0263 278° West  Level FlightAware Approximate
07:54AM 67.0340 -6.3257 277° West  Level FlightAware Approximate
07:55AM 67.0482 -6.6254 277° West  Level FlightAware Approximate
07:56AM 67.0618 -6.9255 277° West  Level FlightAware Approximate
07:57AM 67.0749 -7.2259 277° West  Level FlightAware Approximate
07:58AM 67.0874 -7.5266 276° West  Level FlightAware Approximate
07:59AM 67.0993 -7.8276 276° West  Level FlightAware Approximate
08:00AM 67.1107 -8.1290 276° West  Level FlightAware Approximate
08:01AM 67.1215 -8.4306 275° West  Level FlightAware Approximate
08:02AM 67.1317 -8.7324 275° West  Level FlightAware Approximate
08:03AM 67.1414 -9.0345 275° West  Level FlightAware Approximate
08:04AM 67.1505 -9.3369 275° West  Level FlightAware Approximate
08:05AM 67.1590 -9.6395 274° West  Level FlightAware Approximate
08:06AM 67.1669 -9.9422 274° West  Level FlightAware Approximate
08:07AM 67.1743 -10.2452 274° West  Level FlightAware Approximate
08:08AM 67.1811 -10.5483 273° West  Level FlightAware Approximate
08:09AM 67.1873 -10.8516 273° West  Level FlightAware Approximate
08:10AM 67.1930 -11.1551 273° West  Level FlightAware Approximate
08:11AM 67.1981 -11.4587 273° West  Level FlightAware Approximate
08:12AM 67.2026 -11.7624 272° West  Level FlightAware Approximate
08:13AM 67.2065 -12.0662 272° West  Level FlightAware Approximate
08:14AM 67.2099 -12.3701 272° West  Level FlightAware Approximate
08:15AM 67.2126 -12.6741 271° West  Level FlightAware Approximate
08:16AM 67.2148 -12.9782 271° West  Level FlightAware Approximate
08:17AM 67.2165 -13.2823 271° West  Level FlightAware Approximate
08:18AM 67.2175 -13.5864 271° West  Level FlightAware Approximate
08:19AM 67.2180 -13.8905 270° West  Level FlightAware Approximate
08:20AM 67.2179 -14.1947 270° West  Level FlightAware Approximate
08:21AM 67.2172 -14.4989 270° West  Level FlightAware Approximate
08:22AM 67.2160 -14.8030 270° West  Level FlightAware Approximate
08:23AM 67.2141 -15.1071 269° West  Level FlightAware Approximate
08:24AM 67.2117 -15.4111 269° West  Level FlightAware Approximate
08:25AM 67.2087 -15.7150 269° West  Level FlightAware Approximate
08:26AM 67.2052 -16.0189 268° West  Level FlightAware Approximate
08:27AM 67.2010 -16.3227 268° West  Level FlightAware Approximate
08:28AM 67.1963 -16.6264 268° West  Level FlightAware Approximate
08:29AM 67.1910 -16.9299 268° West  Level FlightAware Approximate
08:30AM 67.1852 -17.2333 267° West  Level FlightAware Approximate
08:31AM 67.1787 -17.5366 267° West  Level FlightAware Approximate
08:32AM 67.1717 -17.8397 267° West  Level FlightAware Approximate
08:33AM 67.1641 -18.1426 266° West  Level FlightAware Approximate
08:34AM 67.1560 -18.4453 266° West  Level FlightAware Approximate
08:35AM 67.1473 -18.7478 266° West  Level FlightAware Approximate
08:36AM 67.1380 -19.0500 266° West  Level FlightAware Approximate
08:37AM 67.1281 -19.3520 265° West  Level FlightAware Approximate
08:38AM 67.1177 -19.6538 265° West  Level FlightAware Approximate
08:39AM 67.1067 -19.9553 265° West  Level FlightAware Approximate
08:40AM 67.0951 -20.2565 265° West  Level FlightAware Approximate
08:41AM 67.0830 -20.5575 264° West  Level FlightAware Approximate
08:42AM 67.0703 -20.8581 264° West  Level FlightAware Approximate
08:43AM 67.0570 -21.1584 264° West  Level FlightAware Approximate
08:44AM 67.0431 -21.4583 263° West  Level FlightAware Approximate
08:45AM 67.0287 -21.7579 263° West  Level FlightAware Approximate
08:46AM 67.0138 -22.0572 263° West  Level FlightAware Approximate
08:47AM 66.9983 -22.3561 263° West  Level FlightAware Approximate
08:48AM 66.9822 -22.6546 262° West  Level FlightAware Approximate
08:49AM 66.9655 -22.9527 262° West  Level FlightAware Approximate
08:50AM 66.9483 -23.2503 262° West  Level FlightAware Approximate
08:51AM 66.9306 -23.5476 261° West  Level FlightAware Approximate
08:52AM 66.9123 -23.8444 261° West  Level FlightAware Approximate
08:53AM 66.8934 -24.1408 261° West  Level FlightAware Approximate
08:54AM 66.8740 -24.4366 261° West  Level FlightAware Approximate
08:55AM 66.8540 -24.7321 260° West  Level FlightAware Approximate
08:56AM 66.8335 -25.0270 260° West  Level FlightAware Approximate
08:57AM 66.8124 -25.3214 260° West  Level FlightAware Approximate
08:58AM 66.7908 -25.6153 260° West  Level FlightAware Approximate
08:59AM 66.7687 -25.9087 259° West  Level FlightAware Approximate
09:00AM 66.7460 -26.2016 259° West  Level FlightAware Approximate
09:01AM 66.7227 -26.4939 259° West  Level FlightAware Approximate
09:02AM 66.6989 -26.7857 258° West  Level FlightAware Approximate
09:03AM 66.6746 -27.0769 258° West  Level FlightAware Approximate
09:04AM 66.6498 -27.3675 258° West  Level FlightAware Approximate
09:05AM 66.6244 -27.6575 258° West  Level FlightAware Approximate
09:06AM 66.5984 -27.9469 257° West  Level FlightAware Approximate
09:07AM 66.5720 -28.2357 257° West  Level FlightAware Approximate
09:08AM 66.5450 -28.5239 257° West  Level FlightAware Approximate
09:09AM 66.5175 -28.8114 257° West  Level FlightAware Approximate
09:10AM 66.4894 -29.0984 256° West  Level FlightAware Approximate
09:11AM 66.4609 -29.3846 256° West  Level FlightAware Approximate
09:12AM 66.4318 -29.6702 256° West  Level FlightAware Approximate
09:13AM 66.4022 -29.9552 256° West  Level FlightAware Approximate
09:14AM 66.3720 -30.2394 255° West  Level FlightAware Approximate
09:15AM 66.3414 -30.5230 255° West  Level FlightAware Approximate
09:16AM 66.3102 -30.8058 255° West  Level FlightAware Approximate
09:17AM 66.2785 -31.0880 255° West  Level FlightAware Approximate
09:18AM 66.2464 -31.3694 254° West  Level FlightAware Approximate
09:19AM 66.2137 -31.6502 254° West  Level FlightAware Approximate
09:20AM 66.1805 -31.9301 254° West  Level FlightAware Approximate
09:21AM 66.1468 -32.2094 253° West  Level FlightAware Approximate
09:22AM 66.1126 -32.4879 253° West  Level FlightAware Approximate
09:23AM 66.0779 -32.7657 253° West  Level FlightAware Approximate
09:24AM 66.0427 -33.0426 253° West  Level FlightAware Approximate
09:25AM 66.0070 -33.3189 252° West  Level FlightAware Approximate
09:26AM 65.9708 -33.5943 252° West  Level FlightAware Approximate
09:27AM 65.9341 -33.8689 252° West  Level FlightAware Approximate
09:28AM 65.8969 -34.1428 252° West  Level FlightAware Approximate
09:29AM 65.8593 -34.4159 251° West  Level FlightAware Approximate
09:30AM 65.8211 -34.6881 251° West  Level FlightAware Approximate
09:31AM 65.7825 -34.9596 251° West  Level FlightAware Approximate
09:32AM 65.7434 -35.2302 251° West  Level FlightAware Approximate
09:33AM 65.7038 -35.5000 250° West  Level FlightAware Approximate
09:34AM 65.6638 -35.7690 250° West  Level FlightAware Approximate
09:35AM 65.6232 -36.0371 250° West  Level FlightAware Approximate
09:36AM 65.5822 -36.3044 250° West  Level FlightAware Approximate
09:37AM 65.5408 -36.5709 250° West  Level FlightAware Approximate
09:38AM 65.4988 -36.8365 249° West  Level FlightAware Approximate
09:39AM 65.4564 -37.1012 249° West  Level FlightAware Approximate
09:40AM 65.4136 -37.3651 249° West  Level FlightAware Approximate
09:41AM 65.3703 -37.6282 249° West  Level FlightAware Approximate
09:42AM 65.3265 -37.8903 248° West  Level FlightAware Approximate
09:43AM 65.2823 -38.1516 248° West  Level FlightAware Approximate
09:44AM 65.2376 -38.4120 248° West  Level FlightAware Approximate
09:45AM 65.1925 -38.6715 248° West  Level FlightAware Approximate
09:46AM 65.1469 -38.9301 247° West  Level FlightAware Approximate
09:47AM 65.1009 -39.1879 247° West  Level FlightAware Approximate
09:48AM 65.0545 -39.4447 247° West  Level FlightAware Approximate
09:49AM 65.0076 -39.7006 247° West  Level FlightAware Approximate
09:50AM 64.9602 -39.9557 246° West  Level FlightAware Approximate
09:51AM 64.9125 -40.2098 246° West  Level FlightAware Approximate
09:52AM 64.8643 -40.4631 246° West  Level FlightAware Approximate
09:53AM 64.8157 -40.7154 246° West  Level FlightAware Approximate
09:54AM 64.7666 -40.9668 246° West  Level FlightAware Approximate
09:55AM 64.7171 -41.2173 245° Southwest  Level FlightAware Approximate
09:56AM 64.6672 -41.4668 245° Southwest  Level FlightAware Approximate
09:57AM 64.6169 -41.7155 245° Southwest  Level FlightAware Approximate
09:58AM 64.5662 -41.9632 245° Southwest  Level FlightAware Approximate
09:59AM 64.5151 -42.2100 244° Southwest  Level FlightAware Approximate
10:00AM 64.4635 -42.4559 244° Southwest  Level FlightAware Approximate
10:01AM 64.4115 -42.7009 244° Southwest  Level FlightAware Approximate
10:02AM 64.3592 -42.9449 244° Southwest  Level FlightAware Approximate
10:03AM 64.3064 -43.1880 243° Southwest  Level FlightAware Approximate
10:04AM 64.2532 -43.4301 243° Southwest  Level FlightAware Approximate
10:05AM 64.1996 -43.6713 243° Southwest  Level FlightAware Approximate
10:06AM 64.1456 -43.9116 243° Southwest  Level FlightAware Approximate
10:07AM 64.0913 -44.1510 243° Southwest  Level FlightAware Approximate
10:08AM 64.0365 -44.3894 242° Southwest  Level FlightAware Approximate
10:09AM 63.9814 -44.6269 242° Southwest  Level FlightAware Approximate
10:10AM 63.9258 -44.8634 242° Southwest  Level FlightAware Approximate
10:11AM 63.8699 -45.0990 242° Southwest  Level FlightAware Approximate
10:12AM 63.8136 -45.3337 242° Southwest  Level FlightAware Approximate
10:13AM 63.7569 -45.5674 241° Southwest  Level FlightAware Approximate
10:14AM 63.6999 -45.8002 241° Southwest  Level FlightAware Approximate
10:15AM 63.6424 -46.0320 241° Southwest  Level FlightAware Approximate
10:16AM 63.5846 -46.2629 241° Southwest  Level FlightAware Approximate
10:17AM 63.5265 -46.4929 241° Southwest  Level FlightAware Approximate
10:18AM 63.4679 -46.7219 240° Southwest  Level FlightAware Approximate
10:19AM 63.4090 -46.9500 240° Southwest  Level FlightAware Approximate
10:20AM 63.3498 -47.1772 240° Southwest  Level FlightAware Approximate
10:21AM 63.2902 -47.4034 240° Southwest  Level FlightAware Approximate
10:22AM 63.2302 -47.6287 239° Southwest  Level FlightAware Approximate
10:23AM 63.1698 -47.8530 239° Southwest  Level FlightAware Approximate
10:24AM 63.1092 -48.0764 239° Southwest  Level FlightAware Approximate
10:25AM 63.0481 -48.2989 239° Southwest  Level FlightAware Approximate
10:26AM 62.9867 -48.5204 239° Southwest  Level FlightAware Approximate
10:27AM 62.9250 -48.7411 238° Southwest  Level FlightAware Approximate
10:28AM 62.8629 -48.9607 238° Southwest  Level FlightAware Approximate
10:29AM 62.8005 -49.1795 238° Southwest  Level FlightAware Approximate
10:30AM 62.7378 -49.3973 238° Southwest  Level FlightAware Approximate
10:31AM 62.6747 -49.6142 238° Southwest  Level FlightAware Approximate
10:32AM 62.6113 -49.8302 238° Southwest  Level FlightAware Approximate
10:33AM 62.5475 -50.0452 237° Southwest  Level FlightAware Approximate
10:34AM 62.4834 -50.2593 237° Southwest  Level FlightAware Approximate
10:35AM 62.4190 -50.4726 237° Southwest  Level FlightAware Approximate
10:36AM 62.3543 -50.6848 237° Southwest  Level FlightAware Approximate
10:37AM 62.2893 -50.8962 237° Southwest  Level FlightAware Approximate
10:38AM 62.2239 -51.1067 236° Southwest  Level FlightAware Approximate
10:39AM 62.1582 -51.3162 236° Southwest  Level FlightAware Approximate
10:40AM 62.0922 -51.5249 236° Southwest  Level FlightAware Approximate
10:41AM 62.0259 -51.7326 236° Southwest  Level FlightAware Approximate
10:42AM 61.9593 -51.9394 236° Southwest  Level FlightAware Approximate
10:43AM 61.8923 -52.1453 235° Southwest  Level FlightAware Approximate
10:44AM 61.8251 -52.3504 235° Southwest  Level FlightAware Approximate
10:45AM 61.7575 -52.5545 235° Southwest  Level FlightAware Approximate
10:46AM 61.6897 -52.7577 235° Southwest  Level FlightAware Approximate
10:47AM 61.6215 -52.9600 235° Southwest  Level FlightAware Approximate
10:48AM 61.5531 -53.1615 235° Southwest  Level FlightAware Approximate
10:49AM 61.4843 -53.3620 234° Southwest  Level FlightAware Approximate
10:50AM 61.4153 -53.5617 234° Southwest  Level FlightAware Approximate
10:51AM 61.3460 -53.7605 234° Southwest  Level FlightAware Approximate
10:52AM 61.2764 -53.9584 234° Southwest  Level FlightAware Approximate
10:53AM 61.2065 -54.1554 234° Southwest  Level FlightAware Approximate
10:54AM 61.1363 -54.3516 234° Southwest  Level FlightAware Approximate
10:55AM 61.0658 -54.5468 233° Southwest  Level FlightAware Approximate
10:55AM 63.8000 -54.6167 233° Southwest 440 506 37,000  Level Gander Center
10:56AM 60.9951 -54.7412 233° Southwest  Level FlightAware Approximate
10:56AM 63.7333 -54.8167 233° Southwest 430 495 37,000  Level Gander Center
10:57AM 60.9038 -54.8944 233° Southwest  Level Estimated
10:57AM 63.6500 -55.0500 231° Southwest 430 495 37,000  Level Gander Center
10:58AM 60.8339 -55.0892 234° Southwest  Level FlightAware Approximate
10:58AM 63.6000 -55.2500 241° Southwest 450 518 37,000  Level Gander Center
10:59AM 60.7638 -55.2832 234° Southwest  Level FlightAware Approximate
10:59AM 63.5167 -55.5333 237° Southwest 450 518 37,000  Level Gander Center
11:00AM 60.6934 -55.4763 233° Southwest  Level FlightAware Approximate
11:00AM 63.4500 -55.7333 233° Southwest 440 506 37,000  Level Gander Center
11:01AM 60.6227 -55.6686 233° Southwest  Level FlightAware Approximate
11:01AM 63.3833 -55.9167 231° Southwest 430 495 37,000  Level Gander Center
11:02AM 63.3167 -56.1500 238° Southwest 420 483 37,000  Level Gander Center
11:03AM 63.2500 -56.3500 234° Southwest 430 495 37,000  Level Gander Center
11:04AM 63.1833 -56.5833 238° Southwest 430 495 37,000  Level Gander Center
11:05AM 63.1167 -56.7833 234° Southwest 430 495 37,000  Level Gander Center
11:06AM 63.0500 -57.0000 236° Southwest 440 506 37,000  Level Gander Center
11:07AM 62.9667 -57.2333 232° Southwest 450 518 37,000  Level Gander Center
11:08AM 62.9000 -57.4667 238° Southwest 460 529 37,000  Level Gander Center
11:11AM 62.8112 -57.6837 234° Southwest  Level FlightAware Approximate
11:18AM 62.3142 -59.1304 234° Southwest  Level FlightAware Approximate
11:18AM 62.2333 -59.4000 232° Southwest 370 426 37,000  Level Gander Center
11:19AM 62.2420 -59.3331 233° Southwest  Level FlightAware Approximate
11:19AM 62.1500 -59.6167 231° Southwest 480 552 37,000  Level Gander Center
11:20AM 62.1696 -59.5349 232° Southwest  Level FlightAware Approximate
11:20AM 62.0833 -59.8333 237° Southwest 440 506 37,000  Level Gander Center
11:21AM 62.0968 -59.7357 232° Southwest  Level FlightAware Approximate
11:21AM 62.0000 -60.0167 226° Southwest 430 495 37,000  Level Gander Center
11:22AM 62.0237 -59.9356 232° Southwest  Level FlightAware Approximate
11:22AM 61.9000 -60.1500 212° Southwest 430 495 37,000  Level Gander Center
11:23AM 61.8167 -60.3333 226° Southwest 430 495 37,000  Level Gander Center
11:24AM 61.7500 -60.5167 233° Southwest 430 495 37,000  Level Gander Center
11:25AM 61.6500 -60.6833 218° Southwest 440 506 37,000  Level Gander Center
11:26AM 61.5667 -60.8333 221° Southwest 430 495 37,000  Level Gander Center
11:27AM 61.4667 -61.0000 219° Southwest 430 495 37,000  Level Gander Center
11:28AM 61.3833 -61.1500 221° Southwest 430 495 37,000  Level Gander Center
11:29AM 61.3000 -61.2333 206° Southwest 430 495 37,000  Level Montreal Center
11:30AM 61.2000 -61.4833 230° Southwest 430 495 37,000  Level Gander Center
11:31AM 61.1000 -61.6667 222° Southwest 440 506 37,000  Level Gander Center
11:32AM 61.0167 -61.8333 224° Southwest 440 506 37,000  Level Gander Center
11:33AM 60.9167 -61.9667 213° Southwest 430 495 37,000  Level Gander Center
11:34AM 60.8333 -62.1333 224° Southwest 440 506 37,000  Level Gander Center
11:35AM 60.7333 -62.3000 219° Southwest 430 495 37,000  Level Gander Center
11:36AM 60.6500 -62.4667 224° Southwest 430 495 37,000 300 Level Gander Center
11:37AM 60.5833 -62.6667 236° Southwest 420 483 37,600 480 Climbing Gander Center
11:38AM 60.5333 -62.9000 247° West 420 483 38,000 180 Climbing Gander Center
11:39AM 60.4833 -63.1000 243° Southwest 420 483 38,000  Level Gander Center
11:40AM 60.4500 -63.3333 254° West 420 483 38,000  Level Gander Center
11:41AM 60.4167 -63.5667 254° West 420 483 38,000  Level Gander Center
11:42AM 60.3667 -63.7667 243° Southwest 420 483 38,000  Level Gander Center
11:43AM 60.3167 -63.9667 243° Southwest 420 483 38,000  Level Gander Center
11:44AM 60.2833 -64.2000 254° West 420 483 38,000  Level Gander Center
11:45AM 60.2500 -64.4333 254° West 420 483 38,000  Level Gander Center
11:46AM 60.2167 -64.6667 254° West 430 495 38,000  Level Gander Center
11:47AM 60.1500 -64.8833 238° Southwest 420 483 38,000  Level Gander Center
11:48AM 60.1000 -65.0833 243° Southwest 430 495 38,000  Level Gander Center
11:49AM 60.0333 -65.2833 236° Southwest 430 495 38,000  Level Gander Center
11:50AM 59.9333 -65.4333 217° Southwest 440 506 38,000  Level Gander Center
11:51AM 59.8500 -65.5833 222° Southwest 440 506 38,000  Level Gander Center
11:52AM 59.7667 -65.7500 225° Southwest 430 495 38,000  Level Gander Center
11:53AM 59.6667 -65.9333 223° Southwest 430 495 38,000  Level Gander Center
11:54AM 59.5833 -66.0500 215° Southwest 430 495 38,000  Level Gander Center
11:55AM 59.5000 -66.2000 222° Southwest 430 495 38,000  Level Gander Center
11:56AM 59.4000 -66.3500 217° Southwest 430 495 38,000  Level Gander Center
11:57AM 59.3167 -66.5000 223° Southwest 430 495 38,000  Level Gander Center
11:58AM 59.2333 -66.6500 223° Southwest 420 483 38,000  Level Gander Center
11:59AM 59.1333 -66.8000 218° Southwest 420 483 38,000  Level Gander Center
12:00PM 59.0333 -66.9833 223° Southwest 420 483 38,000  Level Gander Center
12:01PM 58.9500 -67.1000 216° Southwest 420 483 38,000  Level Gander Center
12:02PM 58.8500 -67.2500 218° Southwest 420 483 38,000  Level Gander Center
12:03PM 58.7667 -67.3833 220° Southwest 420 483 38,000  Level Gander Center
12:04PM 58.6667 -67.5333 218° Southwest 420 483 38,000  Level Gander Center
12:05PM 58.5833 -67.6833 223° Southwest 430 495 38,000  Level Gander Center
12:06PM 58.5000 -67.8167 220° Southwest 430 495 38,000  Level Gander Center
12:07PM 58.4000 -67.9667 218° Southwest 430 495 38,000  Level Gander Center
12:08PM 58.3167 -68.1167 223° Southwest 430 495 38,000  Level Gander Center
12:09PM 58.2167 -68.2500 215° Southwest 430 495 38,000  Level Gander Center
12:10PM 58.1333 -68.4000 224° Southwest 420 483 38,000  Level Gander Center
12:11PM 58.0333 -68.5333 215° Southwest 410 472 38,000  Level Gander Center
12:12PM 57.9500 -68.6667 220° Southwest 430 495 38,000  Level Gander Center
12:13PM 57.8333 -68.8167 214° Southwest 430 495 38,000  Level Gander Center
12:14PM 57.7500 -68.9167 213° Southwest 430 495 38,000  Level Gander Center
12:15PM 57.6500 -69.0500 216° Southwest 430 495 38,000  Level Gander Center
12:16PM 57.5667 -69.1833 221° Southwest 430 495 38,000  Level Gander Center
12:17PM 57.4500 -69.3167 212° Southwest 430 495 38,000  Level Gander Center
12:18PM 57.3667 -69.4667 224° Southwest 430 495 38,000  Level Gander Center
12:19PM 57.2500 -69.5667 205° Southwest 420 483 38,000  Level Gander Center
12:20PM 57.1667 -69.7000 221° Southwest 420 483 38,000  Level Gander Center
12:21PM 57.0667 -69.8333 216° Southwest 420 483 38,000  Level Gander Center
12:22PM 56.9833 -69.9667 221° Southwest 420 483 38,000  Level Gander Center
12:23PM 56.8833 -70.0667 209° Southwest 420 483 38,000  Level Gander Center
12:24PM 56.8000 -70.2000 221° Southwest 420 483 38,000  Level Gander Center
12:25PM 56.6833 -70.3167 209° Southwest 420 483 38,000  Level Gander Center
12:26PM 56.6000 -70.4167 213° Southwest 430 495 38,000  Level Gander Center
12:27PM 56.5000 -70.5500 216° Southwest 430 495 38,000  Level Gander Center
12:28PM 56.3833 -70.6833 212° Southwest 430 495 38,000  Level Gander Center
12:29PM 56.3000 -70.8167 222° Southwest 430 495 38,000  Level Gander Center
12:30PM 56.1833 -70.9000 202° Southwest 430 495 38,000  Level Gander Center
12:31PM 56.1000 -71.0333 222° Southwest 430 495 38,000  Level Gander Center
12:32PM 56.0000 -71.1667 217° Southwest 430 495 38,000  Level Gander Center
12:33PM 55.9000 -71.2833 213° Southwest 430 495 38,000  Level Gander Center
12:34PM 55.8000 -71.3833 209° Southwest 430 495 38,000  Level Gander Center
12:35PM 55.7000 -71.5000 213° Southwest 430 495 38,000  Level Gander Center
12:36PM 55.6167 -71.6333 222° Southwest 420 483 38,000  Level Gander Center
12:37PM 55.5000 -71.7167 202° Southwest 420 483 38,000  Level Gander Center
12:38PM 55.4000 -71.8500 217° Southwest 430 495 38,000  Level Gander Center
12:39PM 55.3167 -71.9667 219° Southwest 430 495 38,000  Level Gander Center
12:40PM 55.2167 -72.0833 214° Southwest 420 483 38,000  Level Gander Center
12:41PM 55.1333 -72.1833 214° Southwest 430 495 38,000  Level Gander Center
12:42PM 55.0167 -72.3000 210° Southwest 430 495 38,000  Level Gander Center
12:43PM 54.9167 -72.4167 214° Southwest 430 495 38,000  Level Gander Center
12:44PM 54.8000 -72.5333 210° Southwest 430 495 38,000  Level Gander Center
12:45PM 54.7167 -72.6500 219° Southwest 430 495 38,000  Level Gander Center
12:46PM 54.6167 -72.7500 210° Southwest 430 495 38,000  Level Gander Center
12:47PM 54.5000 -72.8667 210° Southwest 430 495 38,000  Level Gander Center
12:48PM 54.4167 -72.9833 219° Southwest 430 495 38,000  Level Gander Center
12:49PM 54.3167 -73.1000 214° Southwest 430 495 38,000  Level Gander Center
12:50PM 54.2167 -73.1833 206° Southwest 430 495 38,000  Level Gander Center
12:51PM 54.1167 -73.3000 214° Southwest 430 495 38,000  Level Gander Center
12:52PM 54.0167 -73.4167 214° Southwest 430 495 38,000  Level Gander Center
12:53PM 53.9167 -73.5333 215° Southwest 430 495 38,000  Level Gander Center
12:54PM 53.8333 -73.6167 211° Southwest 430 495 38,000  Level Gander Center
12:55PM 53.7167 -73.7167 207° Southwest 430 495 38,000  Level Gander Center
12:56PM 53.6000 -73.8333 211° Southwest 420 483 38,000  Level Gander Center
12:57PM 53.5000 -73.9167 206° Southwest 420 483 38,000  Level Gander Center
12:58PM 53.4000 -74.0000 206° Southwest 430 495 38,000  Level Gander Center
12:59PM 53.2833 -74.0833 203° Southwest 430 495 38,000  Level Gander Center
01:00PM 53.2000 -74.1667 211° Southwest 430 495 38,000  Level Gander Center
01:01PM 53.0833 -74.2667 207° Southwest 430 495 38,000  Level Gander Center
01:02PM 52.9667 -74.3500 203° Southwest 430 495 38,000  Level Gander Center
01:03PM 52.8667 -74.4333 207° Southwest 430 495 38,000  Level Gander Center
01:04PM 52.7667 -74.5333 211° Southwest 430 495 38,000  Level Gander Center
01:05PM 52.6500 -74.6167 203° Southwest 440 506 38,000  Level Gander Center
01:06PM 52.5500 -74.7000 207° Southwest 430 495 38,000  Level Gander Center
01:07PM 52.4500 -74.7833 207° Southwest 430 495 38,000  Level Gander Center
01:08PM 52.3333 -74.8833 208° Southwest 440 506 38,000  Level Gander Center
01:09PM 52.2167 -74.9667 204° Southwest 440 506 38,000  Level Gander Center
01:10PM 52.1167 -75.0333 202° Southwest 440 506 38,000  Level Gander Center
01:11PM 52.0000 -75.1333 208° Southwest 440 506 38,000  Level Gander Center
01:12PM 51.8833 -75.2167 204° Southwest 440 506 38,000  Level Gander Center
01:13PM 51.7833 -75.3167 212° Southwest 440 506 38,000  Level Gander Center
01:14PM 51.6667 -75.3833 200° South 440 506 38,000  Level Gander Center
01:15PM 51.5500 -75.4667 204° Southwest 440 506 38,000  Level Gander Center
01:16PM 51.4167 -75.5333 197° South 430 495 38,000  Level Montreal Center
01:17PM 51.3000 -75.6167 204° Southwest 430 495 38,000  Level Montreal Center
01:18PM 51.2000 -75.7000 208° Southwest 430 495 38,000  Level Montreal Center
01:19PM 51.0833 -75.7833 204° Southwest 430 495 38,000  Level Montreal Center
01:20PM 50.9833 -75.8500 203° Southwest 430 495 38,000  Level Montreal Center
01:21PM 50.8667 -75.9333 204° Southwest 430 495 38,000  Level Montreal Center
01:22PM 50.7667 -76.0167 208° Southwest 430 495 38,000  Level Montreal Center
01:23PM 50.6500 -76.1000 204° Southwest 430 495 38,000  Level Montreal Center
01:24PM 50.5500 -76.1833 208° Southwest 440 506 38,000  Level Montreal Center
01:25PM 50.4333 -76.2500 200° South 440 506 38,000  Level Montreal Center
01:26PM 50.3167 -76.3667 213° Southwest 440 506 38,000  Level Montreal Center
01:27PM 50.2167 -76.4333 203° Southwest 440 506 38,000  Level Montreal Center
01:28PM 50.0833 -76.5167 202° Southwest 430 495 38,000  Level Montreal Center
01:29PM 49.9833 -76.6000 208° Southwest 430 495 38,000  Level Montreal Center
01:30PM 49.8667 -76.6667 200° South 430 495 38,000  Level Montreal Center
01:31PM 49.7667 -76.7500 208° Southwest 430 495 38,000  Level Montreal Center
01:32PM 49.6500 -76.8167 200° South 440 506 38,000  Level Montreal Center
01:33PM 49.5500 -76.9000 208° Southwest 420 483 38,000  Level Montreal Center
01:34PM 49.4333 -76.9667 200° South 440 506 38,000  Level Montreal Center
01:35PM 49.3167 -77.0500 205° Southwest 450 518 38,000  Level Montreal Center
01:36PM 49.2167 -77.1167 204° Southwest 420 483 38,000  Level Montreal Center
01:37PM 49.1000 -77.2000 205° Southwest 440 506 38,000  Level Montreal Center
01:38PM 48.9833 -77.2667 201° Southwest 440 506 38,000  Level Montreal Center
01:39PM 48.8667 -77.3667 209° Southwest 440 506 38,000  Level Montreal Center
01:40PM 48.7500 -77.4500 205° Southwest 430 495 38,000  Level Montreal Center
01:41PM 48.6500 -77.5167 204° Southwest 440 506 38,000  Level Montreal Center
01:42PM 48.5333 -77.5833 201° Southwest 440 506 38,000  Level Montreal Center
01:43PM 48.4167 -77.6667 205° Southwest 440 506 38,000  Level Montreal Center
01:44PM 48.3167 -77.7333 204° Southwest 440 506 38,000  Level Montreal Center
01:45PM 48.2000 -77.8000 201° Southwest 440 506 38,000  Level Montreal Center
01:46PM 48.0833 -77.8833 206° Southwest 440 506 38,000  Level Montreal Center
01:47PM 47.9500 -77.9500 199° South 440 506 38,000  Level Montreal Center
01:48PM 47.8500 -78.0167 204° Southwest 440 506 38,000  Level Montreal Center
01:49PM 47.7333 -78.0667 196° South 440 506 38,000  Level Montreal Center
01:50PM 47.6167 -78.1333 201° Southwest 440 506 38,000  Level Montreal Center
01:51PM 47.5167 -78.2000 204° Southwest 450 518 38,000  Level Montreal Center
01:52PM 47.3833 -78.2667 199° South 440 506 38,000  Level Montreal Center
01:53PM 47.2833 -78.3500 209° Southwest 440 506 38,000  Level Montreal Center
01:54PM 47.1667 -78.4167 201° Southwest 440 506 38,000  Level Montreal Center
01:55PM 47.0333 -78.4833 199° South 440 506 38,000  Level Montreal Center
01:56PM 46.9333 -78.5500 204° Southwest 440 506 38,000  Level Montreal Center
01:57PM 46.8167 -78.5833 191° South 440 506 38,000  Level Montreal Center
01:58PM 46.7000 -78.6667 206° Southwest 440 506 38,000  Level Montreal Center
01:59PM 46.5833 -78.7333 201° Southwest 440 506 38,000  Level Montreal Center
02:00PM 46.4833 -78.8000 205° Southwest 440 506 38,000  Level Montreal Center
02:01PM 46.3667 -78.8667 202° Southwest 440 506 38,000  Level Montreal Center
02:02PM 46.2333 -78.9333 199° South 440 506 38,000  Level Montreal Center
02:03PM 46.1167 -78.9833 197° South 440 506 38,000  Level Montreal Center
02:04PM 46.0167 -79.0333 199° South 440 506 38,000  Level Montreal Center
02:05PM 45.8833 -79.1000 199° South 440 506 38,000  Level Montreal Center
02:06PM 45.7833 -79.1667 205° Southwest 440 506 38,000  Level Montreal Center
02:07PM 45.6667 -79.2333 202° Southwest 440 506 38,000  Level Montreal Center
02:08PM 45.5500 -79.3000 202° Southwest 440 506 38,000  Level Montreal Center
02:09PM 45.4167 -79.3500 195° South 440 506 38,000  Level Montreal Center
02:10PM 45.3000 -79.4167 202° Southwest 440 506 38,000  Level Montreal Center
02:11PM 45.2000 -79.4833 205° Southwest 450 518 38,000  Level Montreal Center
02:12PM 45.0833 -79.5500 202° Southwest 450 518 38,000  Level Montreal Center
02:13PM 44.9500 -79.5833 190° South 450 518 38,000  Level Toronto Center
02:14PM 44.8167 -79.6500 200° South 450 518 38,000  Level Toronto Center
02:15PM 44.7000 -79.7000 197° South 450 518 38,000  Level Toronto Center
02:16PM 44.5833 -79.7667 202° Southwest 460 529 38,000  Level Toronto Center
02:17PM 44.4833 -79.8667 216° Southwest 450 518 38,000  Level Toronto Center
02:18PM 44.3833 -79.9667 216° Southwest 450 518 38,000  Level Toronto Center
02:19PM 44.2667 -80.0500 207° Southwest 450 518 38,000  Level Toronto Center
02:25PM 43.6937 -80.5834 207° Southwest 447 514 38,000  Level FlightAware ADS-B (CYHM)
02:27PM 43.4818 -80.7679 212° Southwest 448 516 38,000  Level FlightAware ADS-B (CYHM)
02:28PM 43.3553 -80.8767 212° Southwest 447 514 38,000  Level Cleveland Center
02:29PM 43.2500 -80.9664 212° Southwest 443 510 38,000  Level Cleveland Center
02:30PM 43.1450 -81.0558 212° Southwest 440 506 38,000  Level Cleveland Center
02:31PM 43.0411 -81.1439 212° Southwest 436 502 38,000  Level Cleveland Center
02:32PM 42.9281 -81.2158 205° Southwest 444 511 38,000  Level Cleveland Center
02:33PM 42.7964 -81.2994 205° Southwest 444 511 38,000  Level Cleveland Center
02:34PM 42.6839 -81.3678 204° Southwest 440 506 38,000  Level Cleveland Center
02:35PM 42.5717 -81.4358 204° Southwest 438 504 38,000  Level Cleveland Center
02:36PM 42.4603 -81.5033 204° Southwest 435 501 38,000  Level Cleveland Center
02:37PM 42.3494 -81.5717 205° Southwest 435 501 38,000  Level Cleveland Center
02:39PM 42.2375 -81.6386 204° Southwest 436 502 38,000  Level Cleveland Center
02:40PM 42.1272 -81.7056 204° Southwest 432 497 38,000  Level Cleveland Center
02:41PM 41.9994 -81.7811 204° Southwest 429 494 38,000  Level Cleveland Center
02:42PM 41.8908 -81.8461 204° Southwest 427 491 38,000  Level Cleveland Center
02:43PM 41.7819 -81.9103 204° Southwest 425 489 38,000  Level Cleveland Center
02:44PM 41.6744 -81.9747 204° Southwest 425 489 38,000  Level Cleveland Center
02:45PM 41.5653 -82.0392 204° Southwest 426 490 38,000  Level Cleveland Center
02:46PM 41.4372 -82.1131 203° Southwest 430 495 38,000  Level Cleveland Center
02:47PM 41.3250 -82.1747 202° Southwest 434 499 38,000  Level Cleveland Center
02:48PM 41.2042 -82.2153 194° South 449 517 38,000  Level Cleveland Center
02:49PM 41.0842 -82.2597 196° South 446 513 38,000  Level Cleveland Center
02:50PM 40.9628 -82.3025 195° South 448 516 38,000  Level Cleveland Center
02:51PM 40.8425 -82.3458 195° South 446 513 38,000  Level Cleveland Center
02:52PM 40.7008 -82.3956 195° South 448 516 38,000  Level Cleveland Center
02:53PM 40.5797 -82.4394 195° South 446 513 38,000  Level Indianapolis Center
02:54PM 40.4556 -82.4636 188° South 455 524 38,000  Level Indianapolis Center
02:55PM 40.3031 -82.4447 175° South 468 539 38,000  Level Indianapolis Center
02:56PM 40.1886 -82.4289 174° South 473 544 38,000  Level Indianapolis Center
02:57PM 40.0575 -82.4128 175° South 471 542 38,000  Level Indianapolis Center
02:58PM 39.9000 -82.3928 174° South 473 544 38,000  Level Indianapolis Center
02:59PM 39.7758 -82.4219 190° South 450 518 38,000  Level Indianapolis Center
03:00PM 39.6578 -82.4683 197° South 442 509 38,000  Level Indianapolis Center
03:01PM 39.5381 -82.5153 197° South 445 512 38,000  Level Indianapolis Center
03:02PM 39.4183 -82.5636 197° South 450 518 38,000  Level Indianapolis Center
03:03PM 39.2994 -82.6111 197° South 447 514 38,000  Level Indianapolis Center
03:04PM 39.1642 -82.6642 197° South 449 517 38,000  Level Indianapolis Center
03:06PM 39.0469 -82.7111 197° South 444 511 38,000  Level Indianapolis Center
03:07PM 38.9264 -82.7581 197° South 450 518 38,000  Level Indianapolis Center
03:08PM 38.8067 -82.8050 197° South 451 519 38,000  Level Indianapolis Center
03:09PM 38.6631 -82.8608 197° South 450 518 38,000  Level Indianapolis Center
03:10PM 38.5331 -82.9011 194° South 454 522 38,000  Level Indianapolis Center
03:11PM 38.4061 -82.9264 189° South 459 528 38,000  Level Indianapolis Center
03:12PM 38.2783 -82.9519 189° South 461 531 38,000  Level Indianapolis Center
03:18PM 37.4524 -83.1177 189° South 462 532 38,000  Level FlightAware ADS-B
03:19PM 37.3548 -83.1371 189° South 462 532 38,000  Level FlightAware ADS-B
03:19PM 37.2897 -83.1499 189° South 461 531 38,000  Level FlightAware ADS-B
03:21PM 37.1520 -83.1769 189° South 462 532 38,000  Level FlightAware ADS-B
03:21PM 37.0809 -83.1909 189° South 462 532 38,000  Level FlightAware ADS-B
03:22PM 37.0142 -83.2039 189° South 463 533 38,000  Level FlightAware ADS-B
03:22PM 36.9497 -83.2166 189° South 463 533 38,000  Level FlightAware ADS-B
03:23PM 36.8856 -83.2292 189° South 464 534 38,000  Level FlightAware ADS-B
03:23PM 36.8187 -83.2422 189° South 465 535 38,000  Level FlightAware ADS-B
03:24PM 36.7526 -83.2552 189° South 465 535 38,000  Level FlightAware ADS-B
03:24PM 36.6853 -83.2682 189° South 464 534 38,000  Level FlightAware ADS-B
03:25PM 36.6241 -83.2800 189° South 463 533 38,000  Level FlightAware ADS-B
03:25PM 36.5577 -83.2930 189° South 464 534 38,000  Level FlightAware ADS-B
03:26PM 36.4910 -83.3060 189° South 463 533 38,000  Level FlightAware ADS-B
03:26PM 36.4264 -83.3184 189° South 462 532 38,000  Level FlightAware ADS-B
03:28PM 36.2596 -83.3503 189° South 460 529 38,000  Level FlightAware ADS-B
03:28PM 36.1901 -83.3637 189° South 460 529 38,000  Level FlightAware ADS-B
03:29PM 36.1260 -83.3760 189° South 460 529 38,000  Level FlightAware ADS-B
03:29PM 36.0625 -83.3882 189° South 460 529 38,000  Level FlightAware ADS-B
03:30PM 35.9976 -83.4006 189° South 458 527 38,000  Level FlightAware ADS-B
03:30PM 35.9333 -83.4129 189° South 456 525 38,000  Level FlightAware ADS-B
03:31PM 35.8604 -83.4268 189° South 456 525 38,000  Level FlightAware ADS-B
03:31PM 35.7907 -83.4412 190° South 455 524 38,000  Level FlightAware ADS-B
03:32PM 35.7516 -83.4576 199° South 431 496 38,000  Level FlightAware ADS-B
03:32PM 35.6957 -83.4843 201° Southwest 431 496 38,000  Level FlightAware ADS-B
03:33PM 35.6386 -83.5111 201° Southwest 430 495 38,000  Level FlightAware ADS-B
03:33PM 35.5829 -83.5373 201° Southwest 428 493 38,000  Level FlightAware ADS-B
03:34PM 35.5255 -83.5645 201° Southwest 426 490 38,000  Level FlightAware ADS-B
03:34PM 35.4703 -83.5905 201° Southwest 425 489 38,000  Level FlightAware ADS-B
03:35PM 35.4141 -83.6169 201° Southwest 426 490 38,000  Level FlightAware ADS-B
03:35PM 35.3567 -83.6439 201° Southwest 427 491 38,000  Level FlightAware ADS-B
03:36PM 35.3007 -83.6702 201° Southwest 429 494 38,000  Level FlightAware ADS-B
03:36PM 35.2448 -83.6963 201° Southwest 430 495 38,000  Level FlightAware ADS-B
03:37PM 35.1701 -83.7312 201° Southwest 431 496 38,000  Level FlightAware ADS-B
03:37PM 35.1159 -83.7563 201° Southwest 430 495 38,000  Level FlightAware ADS-B
03:38PM 35.0450 -83.7892 201° Southwest 430 495 38,000  Level FlightAware ADS-B
03:39PM 34.9824 -83.8183 201° Southwest 430 495 38,000  Level FlightAware ADS-B
03:39PM 34.9256 -83.8446 201° Southwest 430 495 38,000 -600 Level FlightAware ADS-B
03:40PM 34.8610 -83.8746 201° Southwest 431 496 37,400 -300 Descending FlightAware ADS-B
03:43PM 34.4882 -84.0460 201° Southwest 431 496 37,000 -120 Descending FlightAware ADS-B
03:44PM 34.4066 -84.0833 201° Southwest 431 496 37,000  Level FlightAware ADS-B
03:44PM 34.3507 -84.1088 201° Southwest 431 496 37,000  Level FlightAware ADS-B
03:45PM 34.2905 -84.1363 201° Southwest 432 497 37,000  Level FlightAware ADS-B
03:45PM 34.2218 -84.1677 201° Southwest 432 497 37,000  Level FlightAware ADS-B
03:46PM 34.1558 -84.1976 201° Southwest 433 498 37,000  Level FlightAware ADS-B
03:46PM 34.0946 -84.2255 201° Southwest 433 498 37,000  Level FlightAware ADS-B
03:47PM 34.0400 -84.2501 200° South 433 498 37,000  Level FlightAware ADS-B
03:48PM 33.9809 -84.2768 201° Southwest 433 498 37,000  Level FlightAware ADS-B
03:48PM 33.9249 -84.3021 201° Southwest 433 498 37,000  Level FlightAware ADS-B
03:49PM 33.8648 -84.3292 201° Southwest 434 499 37,000  Level FlightAware ADS-B
03:49PM 33.8030 -84.3571 201° Southwest 435 501 37,000  Level FlightAware ADS-B
03:50PM 33.7462 -84.3826 200° South 436 502 37,000  Level FlightAware ADS-B
03:50PM 33.6910 -84.4044 198° South 445 512 37,000  Level FlightAware ADS-B
03:50PM 33.6591 -84.4133 193° South 451 519 37,000  Level FlightAware ADS-B
03:51PM 33.5851 -84.4271 189° South 462 532 37,000  Level FlightAware ADS-B
03:52PM 33.4687 -84.4302 181° South 472 543 37,000  Level FlightAware ADS-B
03:53PM 33.2864 -84.4314 181° South 479 551 37,000  Level Atlanta Center
03:54PM 33.1550 -84.4283 179° South 479 551 37,000  Level Atlanta Center
03:55PM 33.0233 -84.4253 179° South 474 545 37,000  Level Atlanta Center
03:56PM 32.8878 -84.4222 179° South 479 551 37,000  Level Atlanta Center
03:57PM 32.7583 -84.4192 179° South 474 545 37,000  Level Atlanta Center
03:58PM 32.6228 -84.4161 179° South 474 545 37,000  Level Atlanta Center
03:59PM 32.4933 -84.4131 179° South 474 545 37,000  Level Atlanta Center
04:00PM 32.3575 -84.4125 180° South 474 545 37,000  Level Atlanta Center
04:01PM 32.2242 -84.4072 178° South 474 545 37,000  Level Atlanta Center
04:02PM 32.0925 -84.4067 180° South 474 545 37,000  Level Atlanta Center
04:03PM 31.9947 -84.4039 179° South 473 544 37,000  Level Jacksonville Center
04:04PM 31.8611 -84.4017 179° South 484 557 37,000  Level Jacksonville Center
04:09PM 31.1213 -84.3850 179° South 485 558 37,000  Level FlightAware ADS-B (KTLH)
04:11PM 30.9755 -84.3821 179° South 481 554 37,000  Level FlightAware ADS-B (KTLH)
04:11PM 30.9080 -84.3808 179° South 480 552 37,000  Level FlightAware ADS-B (KTLH)
04:12PM 30.9043 -84.3807 179° South 481 554 37,000  Level FlightAware ADS-B (KTLH)
04:12PM 30.7822 -84.3784 179° South 484 557 37,000  Level FlightAware ADS-B (KTLH)
04:13PM 30.7002 -84.3754 178° South 489 563 37,000  Level FlightAware ADS-B (KTLH)
04:13PM 30.6210 -84.3629 172° South 498 573 37,000  Level FlightAware ADS-B (KTLH)
04:14PM 30.5473 -84.3421 166° South 506 582 37,000  Level FlightAware ADS-B (KTLH)
04:14PM 30.4573 -84.3038 160° South 515 593 37,000  Level FlightAware ADS-B (KTLH)
04:15PM 30.3937 -84.2668 153° Southeast 521 600 37,000  Level FlightAware ADS-B (KTLH)
04:16PM 30.3097 -84.2119 151° Southeast 519 597 37,000  Level FlightAware ADS-B (KTLH)
04:16PM 30.2368 -84.1646 151° Southeast 519 597 37,000  Level FlightAware ADS-B (KTLH)
04:17PM 30.1636 -84.1170 151° Southeast 520 598 37,000  Level FlightAware ADS-B (KTLH)
04:18PM 30.0933 -84.0712 151° Southeast 522 601 37,000  Level FlightAware ADS-B (KTLH)
04:19PM 30.1104 -84.0824 331° Northwest 523 602 37,000  Level FlightAware ADS-B (KTLH)
04:20PM 29.9726 -83.9928 151° Southeast 523 602 37,000  Level FlightAware ADS-B (KTLH)
04:21PM 29.6206 -83.7669 151° Southeast 522 601 37,000  Level Jacksonville Center
04:22PM 29.4917 -83.6847 151° Southeast 522 601 37,000  Level Jacksonville Center
04:23PM 29.3606 -83.6025 151° Southeast 527 606 37,000  Level Jacksonville Center
04:24PM 29.2358 -83.5208 150° Southeast 527 606 37,000  Level Jacksonville Center
04:25PM 29.1067 -83.4369 150° Southeast 521 600 37,000  Level Jacksonville Center
04:26PM 28.9900 -83.3650 152° Southeast 526 605 37,000  Level Jacksonville Center
04:27PM 28.8589 -83.3003 157° South 513 590 37,000  Level Jacksonville Center
04:28PM 28.7233 -83.2431 160° South 513 590 37,000  Level Jacksonville Center
04:29PM 28.5983 -83.1597 150° Southeast 513 590 37,000  Level Jacksonville Center
04:30PM 28.4794 -83.0578 143° Southeast 518 596 37,000  Level Jacksonville Center
04:32PM 28.1856 -82.8622 150° Southeast 528 608 37,000  Level Miami Center
04:33PM 28.0575 -82.7803 151° Southeast 534 615 37,000  Level Miami Center
04:34PM 27.9253 -82.7006 152° Southeast 539 620 37,000  Level Miami Center
04:35PM 27.7694 -82.6831 174° South 506 582 37,000  Level Miami Center
04:36PM 27.6425 -82.6789 178° South 506 582 37,000  Level Miami Center
04:37PM 27.5008 -82.6717 177° South 513 590 37,000  Level Miami Center
04:38PM 27.3467 -82.6639 177° South 512 589 37,000  Level Miami Center
04:39PM 27.2197 -82.6600 178° South 510 587 37,000  Level Miami Center
04:40PM 27.0800 -82.6553 178° South 510 587 37,000  Level Miami Center
04:41PM 26.9383 -82.6506 178° South 515 593 37,000  Level Miami Center
04:42PM 26.7800 -82.6403 177° South 509 586 37,000  Level Miami Center
04:43PM 26.6406 -82.6358 178° South 516 594 37,000  Level Miami Center
04:44PM 26.4986 -82.6311 178° South 516 594 37,000  Level Miami Center
04:45PM 26.3550 -82.6217 177° South 511 588 37,000  Level Miami Center
04:46PM 26.2153 -82.6172 178° South 511 588 37,000  Level Miami Center
04:47PM 26.0717 -82.6081 177° South 516 594 37,000  Level Miami Center
04:48PM 25.9300 -82.6011 177° South 516 594 37,000  Level Miami Center
04:49PM 25.7903 -82.5969 178° South 511 588 37,000  Level Miami Center
04:50PM 25.6508 -82.5903 178° South 511 588 37,000  Level Miami Center
04:51PM 25.5111 -82.5858 178° South 511 588 37,000  Level Miami Center
04:52PM 25.3694 -82.5792 178° South 511 588 37,000 -300 Level Miami Center
04:53PM 25.2253 -82.5817 181° South 516 594 36,500 -1,500 Descending Miami Center
04:54PM 25.0853 -82.5819 180° South 516 594 34,100 -2,280 Descending Miami Center
04:55PM 24.9475 -82.5847 181° South 511 588 32,000 -1,620 Descending Miami Center
04:56PM 24.8139 -82.5875 181° South 498 573 30,900 -1,080 Descending Miami Center
04:57PM 24.6947 -82.5867 180° South 484 557 29,900 -1,020 Descending Miami Center
04:58PM 24.5675 -82.5875 180° South 471 542 28,900 -960 Descending Miami Center
04:59PM 24.4422 -82.5908 181° South 460 529 28,000 -1,320 Descending Miami Center
05:00PM 24.3167 -82.5919 180° South 460 529 26,300 -1,740 Descending Miami Center
05:01PM 24.1894 -82.5908 180° South 460 529 24,600 -1,740 Descending Miami Center
05:02PM 24.0725 -82.5944 182° South 450 518 22,900 -1,800 Descending Miami Center
05:03PM 23.9514 -82.5936 180° South 437 503 21,100 -1,800 Descending Miami Center
05:05PM 23.8319 -82.5223 151° Southeast  Level FlightAware Approximate
05:12PM 23.0097 -82.4118 180° South  Level Estimated
05:13PM 22.9891 -82.4091 180° South  Level Estimated
05:14PM 22.9891 -82.4091 180° South  Level Estimated
05:15PM 22.9891 -82.4091 180° South  Level Estimated
05:16PM 22.9891 -82.4091 180° South  Level Estimated
05:17PM 22.9891 -82.4091 180° South  Level Estimated
05:18PM 22.9891 -82.4091 180° South  Level Estimated
05:19PM 22.9891 -82.4091 180° South  Level Estimated
05:20PM 22.9891 -82.4091 180° South  Level Estimated
05:21PM 22.9891 -82.4091 180° South  Level Estimated
05:22PM 22.9891 -82.4091 180° South  Level Estimated
05:23PM 22.9891 -82.4091 180° South  Level Estimated
05:24PM 22.9891 -82.4091 180° South  Level Estimated
05:25PM 22.9891 -82.4091 180° South  Level Estimated
05:26PM 22.9891 -82.4091 180° South  Level Estimated
05:27PM 22.9891 -82.4091 180° South  Level Estimated
05:28PM 22.9891 -82.4091 180° South  Level Estimated
05:29PM 22.9891 -82.4091 180° South  Level Estimated
05:30PM 22.9891 -82.4091 180° South  Level Estimated
05:31PM 22.9891 -82.4091 180° South  Level Estimated
05:32PM 22.9891 -82.4091 180° South  Level Estimated
05:33PM 22.9891 -82.4091 180° South  Level Estimated